createdAt,value
2023-03-02T00:01:08.548Z,85.45
2023-03-02T00:03:42.332Z,85.61
2023-03-02T00:06:14.961Z,85.82
2023-03-02T00:08:47.979Z,86.12
2023-03-02T00:11:21.877Z,86.03
2023-03-02T00:13:54.167Z,85.26
2023-03-02T00:16:26.721Z,85.83
2023-03-02T00:18:58.977Z,86.29
2023-03-02T00:21:32.103Z,86.70
2023-03-02T00:24:06.003Z,86.16
2023-03-02T00:26:39.001Z,85.97
2023-03-02T00:29:11.582Z,86.15
2023-03-02T00:31:44.098Z,85.70
2023-03-02T00:34:17.084Z,85.57
2023-03-02T00:36:50.328Z,85.67
2023-03-02T00:39:22.638Z,85.83
2023-03-02T00:41:55.149Z,85.95
2023-03-02T00:44:27.403Z,86.25
2023-03-02T00:46:59.817Z,86.08
2023-03-02T00:49:33.064Z,85.67
2023-03-02T00:52:07.224Z,85.78
2023-03-02T00:54:39.517Z,85.59
2023-03-02T00:57:11.925Z,85.35
2023-03-02T00:59:44.237Z,85.82
2023-03-02T01:02:26.260Z,86.28
2023-03-02T01:04:59.943Z,85.69
2023-03-02T01:07:35.313Z,85.83
2023-03-02T01:10:10.736Z,85.95
2023-03-02T01:12:43.835Z,85.82
2023-03-02T01:15:16.580Z,86.01
2023-03-02T01:17:48.883Z,85.97
2023-03-02T01:20:21.622Z,86.00
2023-03-02T01:22:56.748Z,86.51
2023-03-02T01:25:29.121Z,86.63
2023-03-02T01:28:04.097Z,86.56
2023-03-02T01:30:37.258Z,86.97
2023-03-02T01:33:09.745Z,87.07
2023-03-02T01:35:43.234Z,86.23
2023-03-02T01:38:16.741Z,86.00
2023-03-02T01:40:49.608Z,85.91
2023-03-02T01:43:21.971Z,85.76
2023-03-02T01:45:57.601Z,85.96
2023-03-02T01:48:53.541Z,86.40
2023-03-02T01:51:39.595Z,86.71
2023-03-02T01:54:17.442Z,86.95
2023-03-02T01:56:51.500Z,86.70
2023-03-02T01:59:25.716Z,85.83
2023-03-02T02:02:02.262Z,85.91
2023-03-02T02:04:37.693Z,86.01
2023-03-02T02:07:11.411Z,86.13
2023-03-02T02:09:49.384Z,86.10
2023-03-02T02:12:23.772Z,86.38
2023-03-02T02:15:01.115Z,86.76
2023-03-02T02:17:38.560Z,86.73
2023-03-02T02:20:21.613Z,86.46
2023-03-02T02:23:06.423Z,86.45
2023-03-02T02:25:46.353Z,86.46
2023-03-02T02:28:24.607Z,84.76
2023-03-02T02:31:14.238Z,85.59
2023-03-02T02:33:53.093Z,86.00
2023-03-02T02:36:34.178Z,84.66
2023-03-02T02:39:16.626Z,85.71
2023-03-02T02:41:52.430Z,84.72
2023-03-02T02:44:25.306Z,84.73
2023-03-02T02:46:58.057Z,85.17
2023-03-02T02:49:38.222Z,85.21
2023-03-02T02:52:13.575Z,85.24
2023-03-02T02:54:49.438Z,85.53
2023-03-02T02:57:25.364Z,85.66
2023-03-02T03:00:03.081Z,87.18
2023-03-02T03:02:45.820Z,87.81
2023-03-02T03:05:18.480Z,88.20
2023-03-02T03:07:51.113Z,88.16
2023-03-02T03:10:30.486Z,88.46
2023-03-02T03:13:03.992Z,88.70
2023-03-02T03:15:36.283Z,88.77
2023-03-02T03:18:10.684Z,89.08
2023-03-02T03:20:45.659Z,89.25
2023-03-02T03:23:18.343Z,89.30
2023-03-02T03:25:51.125Z,89.27
2023-03-02T03:28:23.451Z,89.13
2023-03-02T03:30:56.517Z,89.52
2023-03-02T03:33:29.133Z,89.72
2023-03-02T03:36:02.532Z,90.01
2023-03-02T03:38:36.015Z,89.97
2023-03-02T03:41:08.599Z,90.07
2023-03-02T03:43:40.874Z,90.21
2023-03-02T03:46:13.376Z,90.46
2023-03-02T03:48:45.746Z,90.61
2023-03-02T03:51:18.893Z,90.56
2023-03-02T03:54:00.156Z,90.60
2023-03-02T03:56:35.832Z,90.61
2023-03-02T03:59:12.562Z,90.39
2023-03-02T04:01:51.292Z,90.51
2023-03-02T04:04:22.881Z,90.44
2023-03-02T04:06:56.808Z,90.32
2023-03-02T04:09:32.471Z,90.39
2023-03-02T04:12:05.498Z,90.22
2023-03-02T04:14:38.627Z,90.18
2023-03-02T04:17:11.136Z,90.19
2023-03-02T04:19:47.332Z,90.35
2023-03-02T04:22:20.374Z,90.43
2023-03-02T04:24:53.342Z,90.55
2023-03-02T04:27:25.778Z,90.58
2023-03-02T04:29:58.111Z,90.51
2023-03-02T04:32:34.473Z,90.42
2023-03-02T04:35:09.011Z,90.27
2023-03-02T04:37:42.720Z,90.32
2023-03-02T04:40:17.694Z,90.32
2023-03-02T04:42:52.468Z,90.34
2023-03-02T04:45:25.078Z,90.45
2023-03-02T04:47:59.907Z,90.47
2023-03-02T04:50:32.271Z,90.54
2023-03-02T04:53:08.261Z,90.60
2023-03-02T04:55:41.873Z,90.73
2023-03-02T04:58:14.838Z,90.98
2023-03-02T05:00:47.654Z,91.10
2023-03-02T05:03:20.199Z,91.02
2023-03-02T05:05:52.977Z,90.95
2023-03-02T05:08:25.644Z,90.88
2023-03-02T05:10:58.445Z,90.86
2023-03-02T05:13:31.307Z,90.92
2023-03-02T05:16:05.538Z,90.88
2023-03-02T05:18:37.859Z,90.84
2023-03-02T05:21:10.598Z,90.84
2023-03-02T05:23:43.802Z,90.76
2023-03-02T05:26:17.038Z,90.82
2023-03-02T05:28:50.346Z,90.79
2023-03-02T05:31:27.509Z,90.89
2023-03-02T05:34:00.050Z,90.89
2023-03-02T05:36:34.052Z,91.09
2023-03-02T05:39:08.160Z,91.13
2023-03-02T05:41:41.948Z,91.07
2023-03-02T05:44:14.348Z,91.06
2023-03-02T05:46:47.251Z,90.94
2023-03-02T05:49:19.640Z,90.85
2023-03-02T05:51:52.486Z,90.89
2023-03-02T05:54:24.756Z,90.95
2023-03-02T05:56:57.316Z,90.87
2023-03-02T05:59:29.712Z,91.06
2023-03-02T06:02:02.615Z,91.27
2023-03-02T06:04:35.043Z,91.33
2023-03-02T06:07:08.482Z,91.13
2023-03-02T06:09:42.537Z,91.00
2023-03-02T06:12:15.913Z,91.11
2023-03-02T06:14:48.238Z,91.06
2023-03-02T06:17:21.251Z,90.96
2023-03-02T06:19:55.884Z,90.96
2023-03-02T06:22:29.830Z,91.01
2023-03-02T06:25:04.452Z,90.88
2023-03-02T06:27:38.036Z,90.83
2023-03-02T06:30:14.533Z,90.86
2023-03-02T06:32:46.996Z,90.58
2023-03-02T06:35:19.921Z,90.09
2023-03-02T06:37:52.836Z,89.93
2023-03-02T06:40:25.216Z,89.87
2023-03-02T06:43:01.313Z,89.88
2023-03-02T06:45:39.118Z,89.88
2023-03-02T06:48:11.692Z,89.74
2023-03-02T06:50:45.947Z,89.51
2023-03-02T06:53:18.614Z,89.79
2023-03-02T06:55:51.645Z,89.93
2023-03-02T06:58:24.323Z,90.12
2023-03-02T07:00:56.655Z,90.25
2023-03-02T07:03:29.030Z,90.36
2023-03-02T07:06:01.359Z,90.35
2023-03-02T07:08:34.844Z,90.20
2023-03-02T07:11:11.935Z,90.14
2023-03-02T07:13:44.359Z,89.83
2023-03-02T07:16:17.759Z,89.98
2023-03-02T07:18:50.141Z,89.98
2023-03-02T07:21:22.489Z,89.98
2023-03-02T07:23:54.918Z,89.98
2023-03-02T07:26:28.092Z,89.35
2023-03-02T07:29:01.265Z,89.66
2023-03-02T07:31:37.229Z,90.04
2023-03-02T07:34:09.524Z,90.06
2023-03-02T07:36:41.750Z,90.05
2023-03-02T07:39:14.343Z,89.73
2023-03-02T07:41:46.908Z,89.75
2023-03-02T07:44:19.449Z,89.79
2023-03-02T07:46:51.916Z,89.74
2023-03-02T07:49:24.742Z,89.56
2023-03-02T07:51:57.019Z,89.69
2023-03-02T07:54:30.879Z,89.70
2023-03-02T07:57:03.979Z,89.63
2023-03-02T07:59:36.496Z,89.66
2023-03-02T08:02:10.710Z,89.75
2023-03-02T08:04:43.728Z,89.60
2023-03-02T08:07:16.222Z,89.34
2023-03-02T08:09:48.902Z,89.27
2023-03-02T08:12:21.388Z,89.30
2023-03-02T08:14:54.144Z,89.03
2023-03-02T08:17:26.596Z,89.14
2023-03-02T08:19:59.278Z,89.17
2023-03-02T08:22:32.461Z,89.29
2023-03-02T08:25:09.069Z,89.06
2023-03-02T08:27:41.556Z,89.11
2023-03-02T08:30:16.411Z,89.22
2023-03-02T08:32:48.849Z,89.04
2023-03-02T08:35:22.602Z,88.82
2023-03-02T08:37:55.400Z,88.68
2023-03-02T08:40:28.056Z,88.78
2023-03-02T08:43:00.345Z,88.62
2023-03-02T08:45:36.091Z,88.52
2023-03-02T08:48:09.845Z,88.20
2023-03-02T08:50:43.984Z,88.27
2023-03-02T08:53:16.553Z,88.07
2023-03-02T08:55:49.146Z,87.68
2023-03-02T08:58:21.903Z,87.52
2023-03-02T09:00:54.680Z,87.38
2023-03-02T09:03:27.090Z,87.13
2023-03-02T09:05:59.771Z,87.04
2023-03-02T09:08:32.090Z,87.01
2023-03-02T09:11:06.536Z,87.09
2023-03-02T09:13:37.521Z,87.07
2023-03-02T09:16:12.580Z,86.59
2023-03-02T09:18:45.128Z,86.03
2023-03-02T09:21:17.563Z,85.95
2023-03-02T09:23:53.904Z,85.82
2023-03-02T09:26:27.287Z,85.89
2023-03-02T09:29:00.908Z,86.02
2023-03-02T09:31:38.869Z,86.31
2023-03-02T09:34:11.478Z,86.00
2023-03-02T09:36:44.077Z,85.91
2023-03-02T09:39:16.384Z,85.73
2023-03-02T09:42:17.851Z,85.64
2023-03-02T09:45:35.373Z,85.58
2023-03-02T09:48:18.723Z,85.29
2023-03-02T09:51:01.246Z,85.02
2023-03-02T09:53:44.299Z,84.54
2023-03-02T09:56:20.226Z,84.30
2023-03-02T09:59:00.535Z,84.03
2023-03-02T10:01:44.130Z,83.82
2023-03-02T10:04:29.138Z,83.80
2023-03-02T10:07:12.807Z,83.85
2023-03-02T10:09:45.689Z,83.76
2023-03-02T10:12:38.042Z,83.41
2023-03-02T10:15:15.946Z,83.23
2023-03-02T10:18:00.859Z,83.02
2023-03-02T10:20:47.555Z,82.54
2023-03-02T10:23:34.206Z,82.36
2023-03-02T10:26:16.077Z,81.79
2023-03-02T10:28:52.217Z,81.67
2023-03-02T10:31:30.758Z,80.38
2023-03-02T10:34:04.605Z,80.76
2023-03-02T10:36:41.625Z,80.63
2023-03-02T10:39:17.293Z,80.33
2023-03-02T10:41:54.501Z,79.57
2023-03-02T10:44:29.611Z,79.01
2023-03-02T10:47:01.904Z,79.14
2023-03-02T10:49:39.493Z,79.49
2023-03-02T10:52:17.326Z,79.16
2023-03-02T10:54:50.142Z,78.77
2023-03-02T10:57:36.648Z,78.60
2023-03-02T11:00:19.368Z,77.70
2023-03-02T11:02:57.743Z,77.18
2023-03-02T11:05:35.557Z,78.02
2023-03-02T11:08:12.532Z,77.69
2023-03-02T11:10:57.012Z,78.00
2023-03-02T11:13:35.582Z,77.59
2023-03-02T11:16:29.242Z,77.47
2023-03-02T11:19:06.706Z,77.27
2023-03-02T11:21:43.065Z,77.28
2023-03-02T11:24:20.012Z,77.28
2023-03-02T11:26:55.117Z,77.16
2023-03-02T11:29:43.292Z,77.33
2023-03-02T11:32:21.543Z,76.86
2023-03-02T11:34:58.002Z,76.70
2023-03-02T11:37:41.176Z,76.46
2023-03-02T11:40:23.963Z,76.29
2023-03-02T11:42:59.912Z,76.02
2023-03-02T11:45:35.064Z,76.07
2023-03-02T11:48:16.334Z,76.00
2023-03-02T11:50:57.718Z,75.77
2023-03-02T11:53:35.100Z,75.90
2023-03-02T11:56:08.459Z,75.66
2023-03-02T11:58:43.733Z,75.43
2023-03-02T12:01:23.627Z,75.27
2023-03-02T12:04:07.609Z,75.65
2023-03-02T12:06:44.383Z,75.61
2023-03-02T12:09:39.595Z,75.49
2023-03-02T12:12:35.358Z,75.55
2023-03-02T12:15:30.878Z,75.37
2023-03-02T12:18:03.630Z,74.50
2023-03-02T12:20:35.928Z,74.59
2023-03-02T12:23:25.298Z,74.47
2023-03-02T12:26:09.052Z,74.49
2023-03-02T12:28:42.568Z,74.47
2023-03-02T12:31:16.542Z,74.13
2023-03-02T12:33:52.447Z,73.35
2023-03-02T12:36:33.598Z,73.33
2023-03-02T12:39:27.535Z,72.98
2023-03-02T12:42:31.831Z,73.32
2023-03-02T12:45:16.912Z,73.37
2023-03-02T12:47:54.207Z,72.91
2023-03-02T12:50:31.358Z,72.88
2023-03-02T12:53:06.435Z,72.10
2023-03-02T12:55:41.292Z,72.22
2023-03-02T12:58:20.407Z,72.43
2023-03-02T13:00:58.126Z,72.17
2023-03-02T13:03:32.651Z,72.31
2023-03-02T13:06:13.337Z,72.31
2023-03-02T13:08:49.128Z,71.57
2023-03-02T13:11:29.091Z,71.94
2023-03-02T13:14:05.139Z,72.34
2023-03-02T13:16:38.240Z,71.96
2023-03-02T13:19:16.706Z,71.87
2023-03-02T13:21:49.403Z,71.96
2023-03-02T13:24:46.913Z,72.13
2023-03-02T13:27:21.691Z,72.40
2023-03-02T13:29:55.794Z,72.55
2023-03-02T13:32:35.990Z,72.78
2023-03-02T13:35:20.667Z,73.07
2023-03-02T13:38:01.762Z,73.28
2023-03-02T13:40:42.911Z,73.10
2023-03-02T13:43:37.840Z,73.02
2023-03-02T13:46:29.089Z,73.34
2023-03-02T13:49:10.677Z,73.26
2023-03-02T13:51:46.778Z,73.42
2023-03-02T13:54:25.315Z,73.62
2023-03-02T13:57:00.525Z,73.60
2023-03-02T13:59:36.716Z,73.84
2023-03-02T14:02:23.779Z,74.02
2023-03-02T14:04:56.917Z,73.97
2023-03-02T14:07:29.397Z,74.15
2023-03-02T14:10:02.756Z,74.24
2023-03-02T14:12:36.115Z,74.52
2023-03-02T14:15:17.171Z,74.57
2023-03-02T14:17:50.512Z,74.63
2023-03-02T14:20:23.326Z,74.87
2023-03-02T14:22:55.627Z,75.26
2023-03-02T14:25:28.845Z,75.18
2023-03-02T14:28:01.205Z,75.39
2023-03-02T14:30:36.103Z,75.34
2023-03-02T14:33:16.972Z,75.34
2023-03-02T14:35:50.181Z,75.74
2023-03-02T14:38:24.801Z,75.72
2023-03-02T14:40:57.700Z,75.50
2023-03-02T14:43:30.858Z,75.71
2023-03-02T14:46:03.830Z,75.63
2023-03-02T14:48:36.819Z,75.75
2023-03-02T14:51:23.214Z,75.80
2023-03-02T14:53:59.376Z,75.78
2023-03-02T14:56:33.474Z,76.01
2023-03-02T14:59:07.075Z,75.84
2023-03-02T15:01:40.263Z,75.87
2023-03-02T15:04:13.322Z,76.10
2023-03-02T15:06:47.480Z,76.00
2023-03-02T15:09:20.129Z,76.04
2023-03-02T15:11:52.626Z,76.11
2023-03-02T15:14:24.959Z,75.90
2023-03-02T15:16:57.636Z,75.80
2023-03-02T15:19:29.919Z,75.66
2023-03-02T15:22:02.429Z,75.70
2023-03-02T15:24:36.249Z,75.44
2023-03-02T15:27:09.696Z,75.44
2023-03-02T15:29:46.456Z,75.49
2023-03-02T15:32:19.184Z,75.35
2023-03-02T15:34:51.580Z,75.28
2023-03-02T15:37:23.896Z,75.00
2023-03-02T15:40:02.033Z,74.94
2023-03-02T15:42:36.582Z,74.85
2023-03-02T15:45:11.616Z,74.95
2023-03-02T15:47:44.240Z,74.90
2023-03-02T15:50:16.816Z,75.17
2023-03-02T15:52:49.671Z,75.13
2023-03-02T15:55:22.115Z,75.19
2023-03-02T15:57:58.306Z,75.20
2023-03-02T16:00:30.727Z,75.31
2023-03-02T16:03:03.227Z,75.34
2023-03-02T16:05:36.088Z,75.31
2023-03-02T16:08:12.622Z,75.31
2023-03-02T16:10:45.247Z,75.31
2023-03-02T16:13:17.963Z,75.42
2023-03-02T16:15:50.578Z,75.32
2023-03-02T16:18:24.349Z,75.32
2023-03-02T16:20:58.117Z,75.53
2023-03-02T16:23:31.548Z,75.67
2023-03-02T16:26:13.448Z,75.65
2023-03-02T16:28:49.173Z,75.75
2023-03-02T16:31:29.357Z,75.88
2023-03-02T16:34:07.660Z,76.03
2023-03-02T16:36:42.312Z,76.33
2023-03-02T16:39:13.781Z,76.36
2023-03-02T16:41:47.550Z,76.35
2023-03-02T16:44:20.729Z,76.53
2023-03-02T16:46:56.952Z,76.68
2023-03-02T16:49:33.786Z,76.79
2023-03-02T16:52:07.780Z,77.10
2023-03-02T16:54:40.416Z,77.25
2023-03-02T16:57:13.233Z,77.26
2023-03-02T16:59:45.630Z,77.27
2023-03-02T17:02:19.209Z,77.46
2023-03-02T17:04:51.896Z,77.55
2023-03-02T17:07:24.566Z,77.81
2023-03-02T17:09:59.117Z,78.00
2023-03-02T17:12:42.841Z,78.06
2023-03-02T17:15:18.102Z,78.14
2023-03-02T17:17:50.686Z,78.52
2023-03-02T17:20:23.375Z,78.81
2023-03-02T17:22:56.519Z,78.97
2023-03-02T17:25:29.504Z,79.19
2023-03-02T17:28:05.024Z,79.26
2023-03-02T17:30:38.163Z,79.36
2023-03-02T17:33:10.847Z,79.60
2023-03-02T17:35:46.394Z,79.87
2023-03-02T17:38:19.651Z,79.83
2023-03-02T17:40:51.899Z,79.76
2023-03-02T17:43:24.665Z,80.19
2023-03-02T17:45:58.098Z,80.61
2023-03-02T17:48:30.706Z,80.99
2023-03-02T17:51:03.212Z,80.85
2023-03-02T17:53:37.095Z,81.16
2023-03-02T17:56:11.814Z,81.31
2023-03-02T17:58:45.542Z,80.96
2023-03-02T18:01:17.991Z,81.14
2023-03-02T18:03:50.495Z,81.06
2023-03-02T18:06:23.117Z,81.07
2023-03-02T18:08:55.922Z,81.16
2023-03-02T18:11:30.496Z,81.24
2023-03-02T18:14:03.384Z,81.80
2023-03-02T18:16:52.308Z,82.25
2023-03-02T18:19:25.052Z,82.48
2023-03-02T18:21:57.657Z,82.64
2023-03-02T18:24:33.808Z,82.87
2023-03-02T18:27:11.366Z,83.20
2023-03-02T18:29:44.117Z,83.59
2023-03-02T18:32:17.710Z,83.89
2023-03-02T18:34:50.333Z,84.00
2023-03-02T18:37:22.972Z,84.05
2023-03-02T18:39:55.888Z,83.86
2023-03-02T18:42:33.949Z,83.75
2023-03-02T18:45:19.134Z,83.26
2023-03-02T18:47:51.713Z,83.35
2023-03-02T18:50:25.266Z,83.88
2023-03-02T18:52:58.386Z,84.08
2023-03-02T18:55:31.260Z,83.52
2023-03-02T18:58:03.906Z,83.76
2023-03-02T19:00:39.966Z,83.71
2023-03-02T19:03:12.974Z,83.72
2023-03-02T19:05:49.497Z,83.74
2023-03-02T19:08:23.622Z,83.93
2023-03-02T19:10:57.230Z,84.27
2023-03-02T19:13:33.477Z,84.60
2023-03-02T19:16:09.449Z,84.76
2023-03-02T19:18:42.300Z,84.81
2023-03-02T19:21:15.073Z,84.96
2023-03-02T19:23:47.937Z,85.26
2023-03-02T19:26:21.462Z,85.46
2023-03-02T19:28:55.367Z,85.62
2023-03-02T19:31:31.939Z,85.62
2023-03-02T19:34:10.369Z,85.58
2023-03-02T19:36:47.919Z,85.10
2023-03-02T19:39:22.281Z,84.80
2023-03-02T19:42:02.366Z,84.97
2023-03-02T19:44:43.382Z,85.02
2023-03-02T19:47:19.493Z,84.75
2023-03-02T19:49:57.108Z,84.82
2023-03-02T19:52:42.414Z,84.95
2023-03-02T19:55:20.884Z,85.10
2023-03-02T19:58:05.611Z,84.91
2023-03-02T20:00:43.232Z,84.75
2023-03-02T20:03:22.237Z,84.95
2023-03-02T20:06:07.778Z,84.90
2023-03-02T20:08:52.103Z,85.20
2023-03-02T20:11:27.051Z,85.24
2023-03-02T20:14:03.220Z,85.24
2023-03-02T20:16:45.115Z,85.42
2023-03-02T20:19:22.799Z,85.05
2023-03-02T20:21:58.400Z,85.19
2023-03-02T20:24:51.403Z,85.48
2023-03-02T20:27:27.451Z,85.74
2023-03-02T20:30:18.023Z,85.85
2023-03-02T20:32:52.603Z,85.66
2023-03-02T20:35:31.698Z,85.90
2023-03-02T20:38:16.346Z,86.13
2023-03-02T20:40:58.806Z,86.19
2023-03-02T20:43:35.308Z,85.75
2023-03-02T20:46:22.190Z,86.00
2023-03-02T20:49:09.669Z,86.26
2023-03-02T20:51:49.425Z,86.58
2023-03-02T20:54:27.869Z,86.69
2023-03-02T20:57:09.069Z,86.57
2023-03-02T20:59:46.098Z,86.56
2023-03-02T21:02:28.367Z,86.64
2023-03-02T21:05:05.512Z,86.70
2023-03-02T21:07:44.383Z,86.54
2023-03-02T21:10:21.756Z,86.53
2023-03-02T21:12:55.310Z,86.56
2023-03-02T21:15:29.456Z,86.59
2023-03-02T21:18:02.156Z,86.11
2023-03-02T21:23:17.278Z,85.87
2023-03-02T21:25:50.177Z,86.25
2023-03-02T21:28:22.937Z,86.55
2023-03-02T21:30:55.362Z,86.78
2023-03-02T21:33:29.052Z,87.00
2023-03-02T21:36:01.671Z,87.13
2023-03-02T21:38:36.652Z,87.27
2023-03-02T21:41:14.826Z,87.43
2023-03-02T21:43:48.644Z,87.50
2023-03-02T21:46:24.167Z,87.46
2023-03-02T21:48:58.332Z,87.41
2023-03-02T21:51:34.010Z,87.08
2023-03-02T21:54:10.547Z,86.89
2023-03-02T21:56:46.136Z,86.87
2023-03-02T21:59:18.919Z,86.94
2023-03-02T22:01:51.654Z,87.18
2023-03-02T22:04:24.787Z,87.48
2023-03-02T22:06:57.433Z,87.70
2023-03-02T22:09:30.173Z,87.79
2023-03-02T22:12:02.964Z,87.72
2023-03-02T22:14:36.591Z,87.31
2023-03-02T22:17:20.476Z,87.37
2023-03-02T22:19:54.509Z,87.47
2023-03-02T22:22:30.577Z,87.56
2023-03-02T22:25:16.202Z,87.60
2023-03-02T22:27:50.403Z,87.61
2023-03-02T22:30:27.104Z,87.60
2023-03-02T22:33:01.194Z,87.52
2023-03-02T22:35:34.305Z,87.52
2023-03-02T22:38:15.146Z,87.54
2023-03-02T22:40:49.579Z,87.17
2023-03-02T22:43:29.623Z,86.78
2023-03-02T22:46:16.812Z,86.80
2023-03-02T22:48:51.359Z,86.96
2023-03-02T22:51:25.947Z,87.24
2023-03-02T22:54:01.857Z,87.56
2023-03-02T22:56:39.083Z,87.65
2023-03-02T22:59:21.758Z,87.51
2023-03-02T23:01:55.801Z,87.41
2023-03-02T23:04:38.166Z,87.52
2023-03-02T23:07:21.480Z,87.24
2023-03-02T23:09:53.979Z,86.84
2023-03-02T23:12:29.115Z,86.85
2023-03-02T23:15:03.115Z,87.28
2023-03-02T23:17:39.940Z,87.49
2023-03-02T23:20:17.132Z,87.59
2023-03-02T23:22:52.147Z,87.57
2023-03-02T23:25:25.074Z,87.65
2023-03-02T23:27:57.692Z,87.70
2023-03-02T23:30:30.364Z,87.77
2023-03-02T23:33:02.845Z,87.75
2023-03-02T23:35:38.079Z,87.86
2023-03-02T23:38:13.488Z,88.03
2023-03-02T23:40:49.329Z,88.09
2023-03-02T23:43:24.433Z,88.13
2023-03-02T23:45:57.489Z,88.15
2023-03-02T23:48:30.154Z,88.03
2023-03-02T23:51:02.990Z,88.20
2023-03-02T23:53:38.038Z,88.33
2023-03-02T23:56:14.326Z,88.35
2023-03-02T23:58:50.536Z,87.93
